Time;durP1;ratioP1;P1;durP2;ratioP2;P2;SDS_P1;SDS_P2;PMS_P1;PMS_P2;Temp;Humidity;BMP_temperature;BMP_pressure;BME280_temperature;BME280_humidity;BME280_pressure;Samples;Min_cycle;Max_cycle;Signal;HPM_P1;HPM_P2
2023/06/03 00:01:05;;;;;;;22.85;3.13;;;;;;;;;;5009890;28;20046;-45
2023/06/03 00:03:32;;;;;;;21.60;3.70;;;;;;;;;;5007459;28;20397;-43
2023/06/03 00:06:00;;;;;;;17.75;3.28;;;;;;;;;;5010614;28;20025;-48
2023/06/03 00:08:27;;;;;;;21.85;4.05;;;;;;;;;;5009533;28;20045;-44
2023/06/03 00:10:54;;;;;;;19.33;3.25;;;;;;;;;;5008723;28;20038;-46
2023/06/03 00:13:21;;;;;;;22.67;3.97;;;;;;;;;;5009407;28;20038;-49
2023/06/03 00:15:48;;;;;;;25.70;4.78;;;;;;;;;;5001191;28;20109;-46
2023/06/03 00:18:15;;;;;;;23.58;4.95;;;;;;;;;;5005845;28;20506;-46
2023/06/03 00:20:47;;;;;;;22.50;4.88;;;;;;;;;;5014595;28;20034;-44
2023/06/03 00:23:15;;;;;;;20.73;4.27;;;;;;;;;;5013086;28;20048;-46
2023/06/03 00:25:42;;;;;;;20.58;4.20;;;;;;;;;;5014420;28;20324;-43
2023/06/03 00:28:09;;;;;;;17.10;4.50;;;;;;;;;;5014227;28;20521;-44
2023/06/03 00:30:37;;;;;;;20.20;4.72;;;;;;;;;;5014341;28;20033;-43
2023/06/03 00:33:05;;;;;;;23.02;5.30;;;;;;;;;;5014314;28;20046;-48
2023/06/03 00:35:33;;;;;;;29.60;4.65;;;;;;;;;;5014325;28;20069;-45
2023/06/03 00:38:00;;;;;;;19.92;4.38;;;;;;;;;;5005733;28;20443;-46
2023/06/03 00:40:27;;;;;;;17.30;4.00;;;;;;;;;;5014289;28;20395;-45
2023/06/03 00:42:54;;;;;;;25.88;5.28;;;;;;;;;;5014371;28;20427;-44
2023/06/03 00:45:21;;;;;;;22.77;5.80;;;;;;;;;;5014305;28;20025;-42
2023/06/03 00:47:48;;;;;;;22.00;5.78;;;;;;;;;;5014344;28;20034;-43
2023/06/03 00:50:16;;;;;;;26.00;6.00;;;;;;;;;;5014182;28;20084;-43
2023/06/03 00:52:43;;;;;;;23.27;6.30;;;;;;;;;;5013621;28;20156;-44
2023/06/03 00:55:10;;;;;;;21.73;5.60;;;;;;;;;;4994681;28;20066;-42
2023/06/03 00:57:37;;;;;;;20.98;6.32;;;;;;;;;;4994659;28;20041;-43
2023/06/03 01:00:05;;;;;;;23.70;5.60;;;;;;;;;;4994360;28;20041;-44
2023/06/03 01:02:33;;;;;;;21.80;5.65;;;;;;;;;;4994515;28;20042;-44
2023/06/03 01:05:01;;;;;;;26.48;5.65;;;;;;;;;;4994192;28;20035;-42
2023/06/03 01:07:37;;;;;;;26.65;5.57;;;;;;;;;;4993701;28;20041;-43
2023/06/03 01:10:05;;;;;;;27.88;5.95;;;;;;;;;;4991837;28;20041;-43
2023/06/03 01:12:39;;;;;;;29.25;5.90;;;;;;;;;;5013808;28;20108;-44
2023/06/03 01:15:35;;;;;;;27.42;5.93;;;;;;;;;;5013842;28;20029;-42
2023/06/03 01:18:05;;;;;;;27.20;5.53;;;;;;;;;;4988097;28;20044;-43
2023/06/03 01:20:33;;;;;;;26.08;5.88;;;;;;;;;;5007197;28;20088;-42
2023/06/03 01:23:20;;;;;;;22.48;5.78;;;;;;;;;;5002481;28;20034;-45
2023/06/03 01:25:50;;;;;;;27.75;5.75;;;;;;;;;;5004112;28;20088;-45
2023/06/03 01:28:18;;;;;;;31.08;5.50;;;;;;;;;;5002460;28;20039;-42
2023/06/03 01:30:45;;;;;;;29.50;5.88;;;;;;;;;;5003674;28;20021;-41
2023/06/03 01:33:13;;;;;;;22.75;5.18;;;;;;;;;;5004474;28;20072;-41
2023/06/03 01:35:40;;;;;;;22.42;5.53;;;;;;;;;;5011532;28;20542;-42
2023/06/03 01:38:07;;;;;;;21.90;4.90;;;;;;;;;;5012302;28;20044;-42
2023/06/03 01:40:35;;;;;;;27.17;6.10;;;;;;;;;;5011467;28;20083;-41
2023/06/03 01:43:02;;;;;;;17.95;4.82;;;;;;;;;;5011407;28;20026;-43
2023/06/03 01:45:30;;;;;;;15.40;4.97;;;;;;;;;;5007785;28;20045;-43
2023/06/03 01:47:57;;;;;;;19.02;5.20;;;;;;;;;;5010159;28;20030;-43
2023/06/03 01:50:24;;;;;;;13.55;4.65;;;;;;;;;;5010997;28;20030;-41
2023/06/03 01:52:51;;;;;;;20.50;5.57;;;;;;;;;;5010849;28;20037;-44
2023/06/03 01:55:19;;;;;;;15.23;5.22;;;;;;;;;;4975900;28;20026;-41
2023/06/03 01:57:49;;;;;;;15.05;5.07;;;;;;;;;;5007486;28;20057;-45
2023/06/03 02:00:16;;;;;;;18.63;5.03;;;;;;;;;;5006655;28;20069;-43
2023/06/03 02:02:44;;;;;;;18.80;5.30;;;;;;;;;;5009392;28;20030;-42
2023/06/03 02:05:12;;;;;;;12.50;4.93;;;;;;;;;;5008893;28;20478;-45
2023/06/03 02:07:39;;;;;;;12.82;5.43;;;;;;;;;;5005384;28;20029;-44
2023/06/03 02:10:06;;;;;;;16.33;5.50;;;;;;;;;;5005589;28;20092;-42
2023/06/03 02:12:33;;;;;;;11.55;5.20;;;;;;;;;;5006987;28;20021;-41
2023/06/03 02:15:00;;;;;;;14.50;5.40;;;;;;;;;;5008807;28;20538;-46
2023/06/03 02:17:28;;;;;;;14.77;4.70;;;;;;;;;;5010310;28;20037;-44
2023/06/03 02:19:55;;;;;;;16.50;5.20;;;;;;;;;;4996083;28;20136;-42
2023/06/03 02:22:23;;;;;;;16.40;5.32;;;;;;;;;;5010814;28;20030;-41
2023/06/03 02:24:50;;;;;;;11.68;4.88;;;;;;;;;;5011170;28;20176;-42
2023/06/03 02:27:24;;;;;;;12.57;5.82;;;;;;;;;;5011066;28;20022;-42
2023/06/03 02:29:52;;;;;;;11.45;5.57;;;;;;;;;;5009628;28;20598;-42
2023/06/03 02:32:19;;;;;;;13.98;4.90;;;;;;;;;;5010719;28;20046;-40
2023/06/03 02:34:47;;;;;;;13.68;5.70;;;;;;;;;;4996548;28;20029;-41
2023/06/03 02:37:17;;;;;;;11.20;4.60;;;;;;;;;;5010944;28;20196;-41
2023/06/03 02:39:45;;;;;;;14.00;5.20;;;;;;;;;;5008462;28;20022;-44
2023/06/03 02:42:12;;;;;;;9.65;4.50;;;;;;;;;;5011062;28;20114;-41
2023/06/03 02:44:39;;;;;;;7.25;4.72;;;;;;;;;;5010778;28;20080;-41
2023/06/03 02:47:06;;;;;;;13.50;5.10;;;;;;;;;;5009387;28;20045;-41
2023/06/03 02:49:33;;;;;;;9.45;5.35;;;;;;;;;;5000663;28;20037;-41
2023/06/03 02:52:00;;;;;;;13.35;5.95;;;;;;;;;;5011591;28;20095;-43
2023/06/03 02:54:27;;;;;;;14.27;5.50;;;;;;;;;;5011034;28;20030;-41
2023/06/03 02:56:55;;;;;;;11.57;5.57;;;;;;;;;;5011475;28;20029;-42
2023/06/03 02:59:22;;;;;;;13.07;5.93;;;;;;;;;;5011215;28;20033;-41
2023/06/03 03:01:49;;;;;;;8.35;5.18;;;;;;;;;;5011114;28;20025;-41
2023/06/03 03:04:16;;;;;;;9.75;5.00;;;;;;;;;;5010140;28;20510;-42
2023/06/03 03:06:43;;;;;;;8.43;4.97;;;;;;;;;;5010670;28;20044;-41
2023/06/03 03:09:10;;;;;;;11.85;5.20;;;;;;;;;;5010489;28;20096;-42
2023/06/03 03:11:37;;;;;;;7.80;4.85;;;;;;;;;;5010495;28;20484;-44
2023/06/03 03:14:04;;;;;;;9.77;4.75;;;;;;;;;;5010692;28;20438;-42
2023/06/03 03:16:33;;;;;;;9.60;4.38;;;;;;;;;;5010705;28;20026;-42
2023/06/03 03:19:00;;;;;;;9.02;4.35;;;;;;;;;;5008321;28;20030;-41
2023/06/03 03:21:27;;;;;;;9.70;4.60;;;;;;;;;;5010499;28;20092;-42
2023/06/03 03:23:54;;;;;;;8.30;4.20;;;;;;;;;;5009526;28;20022;-41
2023/06/03 03:26:22;;;;;;;9.05;4.43;;;;;;;;;;5007929;28;20036;-42
2023/06/03 03:28:50;;;;;;;8.63;4.60;;;;;;;;;;5006981;28;20060;-41
2023/06/03 03:31:18;;;;;;;7.57;4.53;;;;;;;;;;5011488;28;20114;-44
2023/06/03 03:33:45;;;;;;;7.55;4.70;;;;;;;;;;5011565;28;20494;-43
2023/06/03 03:36:26;;;;;;;11.18;4.30;;;;;;;;;;5011694;28;20053;-43
2023/06/03 03:39:01;;;;;;;7.57;4.55;;;;;;;;;;5011562;28;20069;-43
2023/06/03 03:41:28;;;;;;;6.70;3.83;;;;;;;;;;5011374;28;20495;-41
2023/06/03 03:43:55;;;;;;;6.80;4.55;;;;;;;;;;5011428;28;20030;-42
2023/06/03 03:46:22;;;;;;;8.13;4.43;;;;;;;;;;5011401;28;20124;-43
2023/06/03 03:48:49;;;;;;;7.90;4.43;;;;;;;;;;5011517;28;20435;-42
2023/06/03 03:51:16;;;;;;;7.18;4.22;;;;;;;;;;5013213;28;20029;-41
2023/06/03 03:53:45;;;;;;;8.32;4.45;;;;;;;;;;5015151;28;20133;-41
2023/06/03 03:56:18;;;;;;;7.38;4.13;;;;;;;;;;5015403;28;20053;-41
2023/06/03 03:58:46;;;;;;;6.45;3.92;;;;;;;;;;5015334;28;20072;-42
2023/06/03 04:01:22;;;;;;;8.57;4.55;;;;;;;;;;5015037;28;20026;-42
2023/06/03 04:03:50;;;;;;;7.25;3.90;;;;;;;;;;5014995;28;20037;-43
2023/06/03 04:06:36;;;;;;;7.28;4.03;;;;;;;;;;5015188;28;20030;-42
2023/06/03 04:09:04;;;;;;;8.02;3.97;;;;;;;;;;5015053;28;20076;-41
2023/06/03 04:11:39;;;;;;;7.30;3.85;;;;;;;;;;5015169;28;20396;-42
2023/06/03 04:14:08;;;;;;;5.35;3.78;;;;;;;;;;5014812;28;20123;-41
2023/06/03 04:16:51;;;;;;;7.10;3.92;;;;;;;;;;5014680;28;20061;-41
2023/06/03 04:19:20;;;;;;;9.48;4.10;;;;;;;;;;5014601;28;20045;-43
2023/06/03 04:21:48;;;;;;;5.22;3.80;;;;;;;;;;5014866;28;20033;-43
2023/06/03 04:24:15;;;;;;;8.68;3.72;;;;;;;;;;5014730;28;20030;-41
2023/06/03 04:26:42;;;;;;;7.07;3.90;;;;;;;;;;5014556;28;20494;-41
2023/06/03 04:29:09;;;;;;;8.35;4.30;;;;;;;;;;5014688;28;20053;-41
2023/06/03 04:31:36;;;;;;;5.10;3.70;;;;;;;;;;4996798;28;20425;-43
2023/06/03 04:34:03;;;;;;;7.03;3.88;;;;;;;;;;5014621;28;20565;-41
2023/06/03 04:36:30;;;;;;;6.32;4.07;;;;;;;;;;5014603;28;20482;-42
2023/06/03 04:39:00;;;;;;;7.97;3.97;;;;;;;;;;5014535;28;20022;-42
2023/06/03 04:41:28;;;;;;;7.30;3.55;;;;;;;;;;4996772;28;20447;-41
2023/06/03 04:43:56;;;;;;;6.72;3.97;;;;;;;;;;5014270;28;20088;-42
2023/06/03 04:46:29;;;;;;;6.30;3.58;;;;;;;;;;5014463;28;20034;-41
2023/06/03 04:49:01;;;;;;;5.22;3.38;;;;;;;;;;5014214;28;20500;-42
2023/06/03 04:51:29;;;;;;;6.95;3.05;;;;;;;;;;5014247;28;20030;-42
2023/06/03 04:53:56;;;;;;;5.10;3.40;;;;;;;;;;5014351;28;20053;-41
2023/06/03 04:56:29;;;;;;;6.63;3.65;;;;;;;;;;5014268;28;20022;-42
2023/06/03 04:58:55;;;;;;;;;;;;;;;;;;5014515;28;20495;-42
2023/06/03 05:01:26;;;;;;;5.95;3.70;;;;;;;;;;5014058;28;19905;-42
2023/06/03 05:03:53;;;;;;;4.45;3.58;;;;;;;;;;5014002;28;20034;-41
2023/06/03 05:06:20;;;;;;;7.50;4.20;;;;;;;;;;5014076;28;20041;-41
2023/06/03 05:08:48;;;;;;;5.43;3.40;;;;;;;;;;5013985;28;20021;-41
2023/06/03 05:11:16;;;;;;;4.57;3.38;;;;;;;;;;5013818;28;20055;-41
2023/06/03 05:13:43;;;;;;;5.35;3.60;;;;;;;;;;5013972;28;20061;-41
2023/06/03 05:16:11;;;;;;;8.50;3.40;;;;;;;;;;5013888;28;20397;-43
2023/06/03 05:18:41;;;;;;;6.53;3.63;;;;;;;;;;5013871;28;20157;-41
2023/06/03 05:21:08;;;;;;;6.03;3.25;;;;;;;;;;5013743;28;20038;-42
2023/06/03 05:23:35;;;;;;;6.03;3.47;;;;;;;;;;5013756;28;20041;-41
2023/06/03 05:26:03;;;;;;;5.18;3.25;;;;;;;;;;5013631;28;20029;-41
2023/06/03 05:28:30;;;;;;;5.18;3.22;;;;;;;;;;5013574;28;20044;-43
2023/06/03 05:30:57;;;;;;;6.03;3.50;;;;;;;;;;5013436;28;20515;-42
2023/06/03 05:33:30;;;;;;;4.80;2.95;;;;;;;;;;5013346;28;20128;-43
2023/06/03 05:35:57;;;;;;;5.10;3.35;;;;;;;;;;5013376;28;20025;-44
2023/06/03 05:38:27;;;;;;;5.03;3.35;;;;;;;;;;5013373;28;20034;-42
2023/06/03 05:40:54;;;;;;;5.05;3.17;;;;;;;;;;5013206;28;20435;-43
2023/06/03 05:43:23;;;;;;;6.13;3.40;;;;;;;;;;5013266;28;20026;-41
2023/06/03 05:45:51;;;;;;;6.40;3.22;;;;;;;;;;5013123;28;20037;-44
2023/06/03 05:48:18;;;;;;;5.90;3.38;;;;;;;;;;5013263;28;20041;-43
2023/06/03 05:50:49;;;;;;;4.55;3.13;;;;;;;;;;5013185;28;20502;-42
2023/06/03 05:53:19;;;;;;;4.00;3.20;;;;;;;;;;5013265;28;20554;-41
2023/06/03 05:55:46;;;;;;;5.95;2.90;;;;;;;;;;5013118;28;20510;-42
2023/06/03 05:58:13;;;;;;;6.10;2.97;;;;;;;;;;5013065;28;20028;-44
2023/06/03 06:00:40;;;;;;;5.90;3.30;;;;;;;;;;5012537;28;20034;-42
2023/06/03 06:03:07;;;;;;;3.78;3.33;;;;;;;;;;5032210;28;20031;-42
2023/06/03 06:05:34;;;;;;;4.45;3.10;;;;;;;;;;5032700;28;20488;-41
2023/06/03 06:08:01;;;;;;;5.60;2.92;;;;;;;;;;5032725;28;20033;-41
2023/06/03 06:10:28;;;;;;;4.43;2.88;;;;;;;;;;5014641;28;20419;-42
2023/06/03 06:12:55;;;;;;;4.18;2.80;;;;;;;;;;5032366;28;20033;-41
2023/06/03 06:15:22;;;;;;;4.80;3.10;;;;;;;;;;5032419;28;20029;-42
2023/06/03 06:17:49;;;;;;;4.90;3.00;;;;;;;;;;5032516;28;20024;-43
2023/06/03 06:20:16;;;;;;;4.50;3.00;;;;;;;;;;5032375;28;20053;-42
2023/06/03 06:22:43;;;;;;;4.68;3.08;;;;;;;;;;5032448;28;20025;-42
2023/06/03 06:25:11;;;;;;;4.13;2.80;;;;;;;;;;5032174;28;20487;-41
2023/06/03 06:27:38;;;;;;;5.97;3.40;;;;;;;;;;5032287;28;20029;-41
2023/06/03 06:30:05;;;;;;;4.55;2.92;;;;;;;;;;5031954;28;20040;-41
2023/06/03 06:32:37;;;;;;;4.72;2.60;;;;;;;;;;5031909;28;20132;-41
2023/06/03 06:35:04;;;;;;;4.32;2.83;;;;;;;;;;5032274;28;20045;-42
2023/06/03 06:37:31;;;;;;;4.50;3.20;;;;;;;;;;5032077;28;20091;-41
2023/06/03 06:39:58;;;;;;;4.65;2.75;;;;;;;;;;5031995;28;20403;-42
2023/06/03 06:42:31;;;;;;;4.03;2.33;;;;;;;;;;5032092;28;20026;-42
2023/06/03 06:44:59;;;;;;;5.90;3.00;;;;;;;;;;5031719;28;20041;-42
2023/06/03 06:47:27;;;;;;;4.47;2.70;;;;;;;;;;5031841;28;20073;-41
2023/06/03 06:49:57;;;;;;;3.63;2.63;;;;;;;;;;5031847;28;20034;-42
2023/06/03 06:52:25;;;;;;;4.60;2.60;;;;;;;;;;5031987;28;20057;-41
2023/06/03 06:54:55;;;;;;;4.38;2.35;;;;;;;;;;5031856;28;20029;-42
2023/06/03 06:57:23;;;;;;;3.83;2.70;;;;;;;;;;5031820;28;20033;-41
2023/06/03 06:59:53;;;;;;;3.72;2.67;;;;;;;;;;5031758;28;20103;-42
2023/06/03 07:02:21;;;;;;;3.53;2.53;;;;;;;;;;5031804;28;20030;-41
2023/06/03 07:04:51;;;;;;;3.70;2.72;;;;;;;;;;5031622;28;20045;-41
2023/06/03 07:07:19;;;;;;;3.60;2.40;;;;;;;;;;5031762;28;20499;-42
2023/06/03 07:09:46;;;;;;;2.80;2.33;;;;;;;;;;5031668;28;20052;-41
2023/06/03 07:12:13;;;;;;;4.53;2.70;;;;;;;;;;5031700;28;20033;-42
2023/06/03 07:14:40;;;;;;;3.90;2.88;;;;;;;;;;5031605;28;20534;-43
2023/06/03 07:17:07;;;;;;;3.33;2.45;;;;;;;;;;5031572;28;20104;-43
2023/06/03 07:19:38;;;;;;;2.88;2.28;;;;;;;;;;5031553;28;20029;-42
2023/06/03 07:22:06;;;;;;;2.78;2.30;;;;;;;;;;5031627;28;20100;-42
2023/06/03 07:24:36;;;;;;;3.10;2.35;;;;;;;;;;5031429;28;20329;-41
2023/06/03 07:27:07;;;;;;;3.88;2.47;;;;;;;;;;5034801;28;20108;-44
2023/06/03 07:29:38;;;;;;;3.65;2.25;;;;;;;;;;5035424;28;20395;-42
2023/06/03 07:32:08;;;;;;;2.42;2.05;;;;;;;;;;5035474;28;20563;-42
2023/06/03 07:34:36;;;;;;;3.33;2.33;;;;;;;;;;5035537;28;20200;-42
2023/06/03 07:37:03;;;;;;;3.88;2.60;;;;;;;;;;5035473;28;20435;-42
2023/06/03 07:39:30;;;;;;;3.47;2.40;;;;;;;;;;5035316;28;20026;-42
2023/06/03 07:41:57;;;;;;;3.63;2.47;;;;;;;;;;5017552;28;20033;-42
2023/06/03 07:44:36;;;;;;;2.33;1.80;;;;;;;;;;5035376;28;20029;-42
2023/06/03 07:47:03;;;;;;;2.90;2.25;;;;;;;;;;5035181;28;20040;-42
2023/06/03 07:49:30;;;;;;;3.45;2.10;;;;;;;;;;5035264;28;20037;-42
2023/06/03 07:51:58;;;;;;;2.97;2.20;;;;;;;;;;5035283;28;20029;-42
2023/06/03 07:54:25;;;;;;;3.75;2.10;;;;;;;;;;5035262;28;20037;-42
2023/06/03 07:56:52;;;;;;;2.85;2.15;;;;;;;;;;5035177;28;20030;-42
2023/06/03 07:59:20;;;;;;;2.80;2.17;;;;;;;;;;5034936;28;20025;-42
2023/06/03 08:01:50;;;;;;;3.70;2.03;;;;;;;;;;5034872;28;20040;-41
2023/06/03 08:04:27;;;;;;;2.08;1.80;;;;;;;;;;5034693;28;20034;-41
2023/06/03 08:06:55;;;;;;;3.58;2.40;;;;;;;;;;5034892;28;20029;-43
2023/06/03 08:09:30;;;;;;;3.08;2.50;;;;;;;;;;5034865;28;20037;-41
2023/06/03 08:11:57;;;;;;;3.63;2.10;;;;;;;;;;5034790;28;20055;-42
2023/06/03 08:14:28;;;;;;;2.83;2.10;;;;;;;;;;5034846;28;20491;-43
2023/06/03 08:16:55;;;;;;;4.05;2.13;;;;;;;;;;5034793;28;20025;-43
2023/06/03 08:19:22;;;;;;;2.95;2.20;;;;;;;;;;5034623;28;20835;-42
2023/06/03 08:21:50;;;;;;;2.67;2.08;;;;;;;;;;5034740;28;20022;-41
2023/06/03 08:24:17;;;;;;;2.78;1.77;;;;;;;;;;5034378;28;20040;-42
2023/06/03 08:26:45;;;;;;;3.17;1.83;;;;;;;;;;5034631;28;20120;-41
2023/06/03 08:29:13;;;;;;;2.50;2.10;;;;;;;;;;5034437;28;20037;-43
2023/06/03 08:31:40;;;;;;;2.85;1.92;;;;;;;;;;5034391;28;20162;-41
2023/06/03 08:34:07;;;;;;;3.00;2.05;;;;;;;;;;5034506;28;20028;-42
2023/06/03 08:36:35;;;;;;;2.45;2.00;;;;;;;;;;5033802;28;20410;-41
2023/06/03 08:39:02;;;;;;;2.72;1.95;;;;;;;;;;5034355;28;20091;-41
2023/06/03 08:41:38;;;;;;;3.63;2.13;;;;;;;;;;5034279;28;20552;-41
2023/06/03 08:44:10;;;;;;;2.95;1.77;;;;;;;;;;5034150;28;20036;-41
2023/06/03 08:46:45;;;;;;;2.35;1.90;;;;;;;;;;5034197;28;20029;-41
2023/06/03 08:49:18;;;;;;;2.50;1.85;;;;;;;;;;5034015;28;20021;-41
2023/06/03 08:51:47;;;;;;;1.95;1.52;;;;;;;;;;5034318;28;20036;-42
2023/06/03 08:54:14;;;;;;;3.17;1.80;;;;;;;;;;5033993;28;20022;-43
2023/06/03 08:56:42;;;;;;;2.55;1.90;;;;;;;;;;5016205;28;20084;-42
2023/06/03 08:59:12;;;;;;;1.85;1.60;;;;;;;;;;5033892;28;20048;-42
2023/06/03 09:01:39;;;;;;;2.63;1.80;;;;;;;;;;5034044;28;20033;-42
2023/06/03 09:04:07;;;;;;;2.08;1.73;;;;;;;;;;5033838;28;20043;-41
2023/06/03 09:06:34;;;;;;;2.20;1.63;;;;;;;;;;5033714;28;20057;-44
2023/06/03 09:09:01;;;;;;;2.40;1.58;;;;;;;;;;5033604;28;20040;-45
2023/06/03 09:11:28;;;;;;;2.55;1.83;;;;;;;;;;5033756;28;20037;-44
2023/06/03 09:13:55;;;;;;;1.88;1.63;;;;;;;;;;5033779;28;20025;-41
2023/06/03 09:16:22;;;;;;;3.80;2.20;;;;;;;;;;5033716;28;20030;-42
2023/06/03 09:18:51;;;;;;;3.78;1.77;;;;;;;;;;5033554;28;20083;-42
2023/06/03 09:21:19;;;;;;;2.42;1.65;;;;;;;;;;5033549;28;20444;-43
2023/06/03 09:23:46;;;;;;;1.77;1.40;;;;;;;;;;5033558;28;20068;-41
2023/06/03 09:26:13;;;;;;;1.83;1.52;;;;;;;;;;5033255;28;20125;-42
2023/06/03 09:28:40;;;;;;;2.22;1.75;;;;;;;;;;5033406;28;20033;-42
2023/06/03 09:31:07;;;;;;;2.72;1.75;;;;;;;;;;5033449;28;20060;-42
2023/06/03 09:33:36;;;;;;;2.28;1.58;;;;;;;;;;5033285;28;20037;-41
2023/06/03 09:36:11;;;;;;;2.00;1.58;;;;;;;;;;5033172;28;20045;-41
2023/06/03 09:38:55;;;;;;;2.92;1.60;;;;;;;;;;5033029;28;20041;-41
2023/06/03 09:41:26;;;;;;;2.65;1.70;;;;;;;;;;5033108;28;20446;-44
2023/06/03 09:44:01;;;;;;;2.17;1.52;;;;;;;;;;5033194;28;20025;-43
2023/06/03 09:46:32;;;;;;;2.30;1.50;;;;;;;;;;5033011;28;20038;-43
2023/06/03 09:49:09;;;;;;;2.55;1.60;;;;;;;;;;5032153;28;20487;-44
2023/06/03 09:51:43;;;;;;;1.90;1.58;;;;;;;;;;5032750;28;20044;-44
2023/06/03 09:54:11;;;;;;;2.15;1.30;;;;;;;;;;5032980;28;20109;-41
2023/06/03 09:56:39;;;;;;;1.83;1.40;;;;;;;;;;5032751;28;20021;-41
2023/06/03 09:59:16;;;;;;;2.70;1.58;;;;;;;;;;5032763;28;20574;-43
2023/06/03 10:01:47;;;;;;;2.25;1.50;;;;;;;;;;5032758;28;20025;-42
2023/06/03 10:04:34;;;;;;;1.73;1.58;;;;;;;;;;5032775;28;20107;-42
2023/06/03 10:07:08;;;;;;;1.50;1.17;;;;;;;;;;5032184;28;20052;-44
2023/06/03 10:09:35;;;;;;;3.25;1.60;;;;;;;;;;5013203;28;20033;-42
2023/06/03 10:12:02;;;;;;;1.40;1.30;;;;;;;;;;5012675;28;20033;-42
2023/06/03 10:14:30;;;;;;;2.88;1.23;;;;;;;;;;5012928;28;20021;-41
2023/06/03 10:17:07;;;;;;;1.95;1.48;;;;;;;;;;5012676;28;20029;-43
2023/06/03 10:19:35;;;;;;;2.10;1.50;;;;;;;;;;4995338;28;20387;-43
2023/06/03 10:22:02;;;;;;;1.88;1.52;;;;;;;;;;5012712;28;20026;-42
2023/06/03 10:24:30;;;;;;;1.80;1.40;;;;;;;;;;5012529;28;20037;-42
2023/06/03 10:26:57;;;;;;;1.80;1.40;;;;;;;;;;5012593;28;20041;-43
2023/06/03 10:29:25;;;;;;;1.85;1.30;;;;;;;;;;5005236;28;20100;-42
2023/06/03 10:31:54;;;;;;;1.52;1.15;;;;;;;;;;4992784;28;20078;-42
2023/06/03 10:34:21;;;;;;;2.00;1.42;;;;;;;;;;4992975;28;20034;-42
2023/06/03 10:37:00;;;;;;;2.95;1.20;;;;;;;;;;5000804;28;20109;-42
2023/06/03 10:39:32;;;;;;;1.73;1.25;;;;;;;;;;5012263;28;20050;-42
2023/06/03 10:42:00;;;;;;;1.70;1.30;;;;;;;;;;5012491;28;20483;-43
2023/06/03 10:44:27;;;;;;;2.03;1.40;;;;;;;;;;5012386;28;20042;-42
2023/06/03 10:46:56;;;;;;;1.48;1.30;;;;;;;;;;5012181;28;20029;-43
2023/06/03 10:49:25;;;;;;;1.73;1.30;;;;;;;;;;5012098;28;20052;-43
2023/06/03 10:51:52;;;;;;;1.52;1.23;;;;;;;;;;5012244;28;20030;-41
2023/06/03 10:54:31;;;;;;;2.03;1.40;;;;;;;;;;5012202;28;20096;-42
2023/06/03 10:57:06;;;;;;;1.63;1.17;;;;;;;;;;5012275;28;20026;-42
2023/06/03 10:59:42;;;;;;;1.20;1.10;;;;;;;;;;5011843;28;20502;-41
2023/06/03 11:02:09;;;;;;;2.20;1.15;;;;;;;;;;5009887;28;20034;-41
2023/06/03 11:04:37;;;;;;;1.48;1.10;;;;;;;;;;5011992;28;20045;-42
2023/06/03 11:07:08;;;;;;;5.40;1.08;;;;;;;;;;5011805;28;20488;-41
2023/06/03 11:09:41;;;;;;;1.83;1.20;;;;;;;;;;5011956;28;20030;-43
2023/06/03 11:12:13;;;;;;;1.65;1.20;;;;;;;;;;5011862;28;20025;-42
2023/06/03 11:14:49;;;;;;;1.70;1.33;;;;;;;;;;5011854;28;20042;-42
2023/06/03 11:17:18;;;;;;;2.10;1.30;;;;;;;;;;5011820;28;20030;-41
2023/06/03 11:19:45;;;;;;;1.40;1.00;;;;;;;;;;5011589;28;20088;-41
2023/06/03 11:22:13;;;;;;;1.30;1.15;;;;;;;;;;5011875;28;20030;-42
2023/06/03 11:24:43;;;;;;;1.45;1.10;;;;;;;;;;5011789;28;20038;-42
2023/06/03 11:27:15;;;;;;;1.85;1.23;;;;;;;;;;5011835;28;20459;-42
2023/06/03 11:29:45;;;;;;;1.85;1.35;;;;;;;;;;5011697;28;20480;-42
2023/06/03 11:32:13;;;;;;;1.98;1.30;;;;;;;;;;5011664;28;20508;-41
2023/06/03 11:34:40;;;;;;;1.73;1.13;;;;;;;;;;5011734;28;20064;-41
2023/06/03 11:37:07;;;;;;;1.80;1.25;;;;;;;;;;5011727;28;20030;-42
2023/06/03 11:39:53;;;;;;;1.00;0.90;;;;;;;;;;5011449;28;20062;-43
2023/06/03 11:42:20;;;;;;;1.65;1.00;;;;;;;;;;5011778;28;20451;-42
2023/06/03 11:44:47;;;;;;;1.45;1.10;;;;;;;;;;5011523;28;20091;-41
2023/06/03 11:47:14;;;;;;;1.75;1.15;;;;;;;;;;5011625;28;20041;-42
2023/06/03 11:49:41;;;;;;;1.73;1.30;;;;;;;;;;5011479;28;20395;-42
2023/06/03 11:52:09;;;;;;;1.13;0.90;;;;;;;;;;5011623;28;20034;-42
2023/06/03 11:54:37;;;;;;;1.52;1.25;;;;;;;;;;5011533;28;20038;-42
2023/06/03 11:57:05;;;;;;;1.30;1.00;;;;;;;;;;5011560;28;20387;-41
2023/06/03 11:59:47;;;;;;;1.88;1.20;;;;;;;;;;5011299;28;20558;-43
2023/06/03 12:02:14;;;;;;;1.33;1.05;;;;;;;;;;5011515;28;20030;-41
2023/06/03 12:04:41;;;;;;;2.25;1.10;;;;;;;;;;5011433;28;20046;-41
2023/06/03 12:07:12;;;;;;;1.10;1.00;;;;;;;;;;4993195;28;20102;-44
2023/06/03 12:09:40;;;;;;;1.30;1.20;;;;;;;;;;4991817;28;20033;-44
2023/06/03 12:12:08;;;;;;;1.02;0.90;;;;;;;;;;4993167;28;20436;-41
2023/06/03 12:14:38;;;;;;;1.10;0.95;;;;;;;;;;4982897;28;20049;-42
2023/06/03 12:17:15;;;;;;;1.08;0.80;;;;;;;;;;4995368;28;20109;-41
2023/06/03 12:19:43;;;;;;;1.20;0.90;;;;;;;;;;4995149;28;20030;-42
2023/06/03 12:22:10;;;;;;;1.48;1.00;;;;;;;;;;4998875;28;20400;-41
2023/06/03 12:24:40;;;;;;;1.25;0.90;;;;;;;;;;5003860;28;20029;-42
2023/06/03 12:27:15;;;;;;;1.10;0.90;;;;;;;;;;5006019;28;20558;-41
2023/06/03 12:29:47;;;;;;;2.63;0.95;;;;;;;;;;4994721;28;20034;-44
2023/06/03 12:32:14;;;;;;;1.00;0.90;;;;;;;;;;5003324;28;20057;-42
2023/06/03 12:34:43;;;;;;;1.38;0.90;;;;;;;;;;4995984;28;20033;-41
2023/06/03 12:37:12;;;;;;;1.00;0.90;;;;;;;;;;5003016;28;20466;-42
2023/06/03 12:39:40;;;;;;;1.60;0.98;;;;;;;;;;5009905;28;20064;-42
2023/06/03 12:42:08;;;;;;;1.13;0.95;;;;;;;;;;5012306;28;20029;-43
2023/06/03 12:44:45;;;;;;;1.35;0.90;;;;;;;;;;5001291;28;20042;-41
2023/06/03 12:47:14;;;;;;;1.00;0.80;;;;;;;;;;5006356;28;20068;-41
2023/06/03 12:49:41;;;;;;;3.85;0.90;;;;;;;;;;4996901;28;20026;-45
2023/06/03 12:52:16;;;;;;;3.38;1.00;;;;;;;;;;5003744;28;20472;-41
2023/06/03 12:54:44;;;;;;;2.35;0.90;;;;;;;;;;5012550;28;20080;-41
2023/06/03 12:57:11;;;;;;;1.58;1.00;;;;;;;;;;5012207;28;20489;-42
2023/06/03 12:59:57;;;;;;;1.40;0.90;;;;;;;;;;5008149;28;20033;-41
2023/06/03 13:02:24;;;;;;;1.58;0.90;;;;;;;;;;5003759;28;20030;-42
2023/06/03 13:04:51;;;;;;;3.33;1.10;;;;;;;;;;4998675;28;20516;-41
2023/06/03 13:07:18;;;;;;;2.03;1.00;;;;;;;;;;5012530;28;20022;-42
2023/06/03 13:09:45;;;;;;;2.25;1.00;;;;;;;;;;5012921;28;20527;-42
2023/06/03 13:12:12;;;;;;;2.45;1.00;;;;;;;;;;5012951;28;20427;-42
2023/06/03 13:14:39;;;;;;;3.03;1.27;;;;;;;;;;5009134;28;20026;-41
2023/06/03 13:17:06;;;;;;;3.03;1.20;;;;;;;;;;5013707;28;20504;-42
2023/06/03 13:19:36;;;;;;;3.30;1.10;;;;;;;;;;5013783;28;20026;-45
2023/06/03 13:22:03;;;;;;;4.80;1.10;;;;;;;;;;5007639;28;20030;-45
2023/06/03 13:24:30;;;;;;;3.72;1.08;;;;;;;;;;5003231;28;20090;-41
2023/06/03 13:26:57;;;;;;;7.05;1.45;;;;;;;;;;5003393;28;20026;-41
2023/06/03 13:29:24;;;;;;;5.43;1.50;;;;;;;;;;4998986;28;20033;-41
2023/06/03 13:31:51;;;;;;;7.65;1.33;;;;;;;;;;5003122;28;20046;-45
2023/06/03 13:34:18;;;;;;;7.88;1.50;;;;;;;;;;5011847;28;20510;-43
2023/06/03 13:36:45;;;;;;;5.60;1.52;;;;;;;;;;5013232;28;20366;-43
2023/06/03 13:39:12;;;;;;;6.05;1.40;;;;;;;;;;4991159;28;20026;-42
2023/06/03 13:41:40;;;;;;;5.10;1.48;;;;;;;;;;5005142;28;20119;-42
2023/06/03 13:44:07;;;;;;;4.32;1.40;;;;;;;;;;5009454;28;20038;-42
2023/06/03 13:46:34;;;;;;;4.40;1.30;;;;;;;;;;5008585;28;20132;-41
2023/06/03 13:49:01;;;;;;;7.95;1.70;;;;;;;;;;5003216;28;20152;-42
2023/06/03 13:51:28;;;;;;;8.35;1.30;;;;;;;;;;5001094;28;20477;-47
2023/06/03 13:53:55;;;;;;;9.32;1.63;;;;;;;;;;5008675;28;20030;-42
2023/06/03 13:56:22;;;;;;;7.68;1.52;;;;;;;;;;5006312;28;20030;-44
2023/06/03 13:58:49;;;;;;;6.05;1.40;;;;;;;;;;5011124;28;20025;-45
2023/06/03 14:01:17;;;;;;;7.97;1.92;;;;;;;;;;5010314;28;20034;-41
2023/06/03 14:03:45;;;;;;;8.50;1.83;;;;;;;;;;5010180;28;20102;-44
2023/06/03 14:06:12;;;;;;;11.40;2.10;;;;;;;;;;5009524;28;20064;-43
2023/06/03 14:08:39;;;;;;;11.55;1.95;;;;;;;;;;5009858;28;20033;-43
2023/06/03 14:11:09;;;;;;;9.43;1.70;;;;;;;;;;5010168;28;20034;-45
2023/06/03 14:13:36;;;;;;;8.30;1.80;;;;;;;;;;5002564;28;20113;-43
2023/06/03 14:16:03;;;;;;;10.80;1.90;;;;;;;;;;4983618;28;20026;-41
2023/06/03 14:18:30;;;;;;;11.70;1.63;;;;;;;;;;5005479;28;20108;-42
2023/06/03 14:20:57;;;;;;;11.38;1.92;;;;;;;;;;4998791;28;20542;-44
2023/06/03 14:23:24;;;;;;;11.73;1.80;;;;;;;;;;4992387;28;20381;-43
2023/06/03 14:25:51;;;;;;;10.23;1.75;;;;;;;;;;5000555;28;20049;-47
2023/06/03 14:28:18;;;;;;;6.90;1.98;;;;;;;;;;5006937;28;20028;-42
2023/06/03 14:30:45;;;;;;;21.35;3.72;;;;;;;;;;5007832;28;20088;-43
2023/06/03 14:33:13;;;;;;;30.70;7.03;;;;;;;;;;5009004;28;20077;-44
2023/06/03 14:35:39;;;;;;;41.67;9.35;;;;;;;;;;5010050;28;20080;-42
2023/06/03 14:38:06;;;;;;;32.83;9.48;;;;;;;;;;5010466;28;20049;-42
2023/06/03 14:40:34;;;;;;;43.72;9.70;;;;;;;;;;5011059;28;20022;-42
2023/06/03 14:43:01;;;;;;;49.42;10.98;;;;;;;;;;5010726;28;20045;-44
2023/06/03 14:45:28;;;;;;;38.70;9.45;;;;;;;;;;5011304;28;20030;-42
2023/06/03 14:47:55;;;;;;;40.85;8.75;;;;;;;;;;5011486;28;20061;-44
2023/06/03 14:50:22;;;;;;;35.85;8.45;;;;;;;;;;5005095;28;20049;-42